x

9440910 - Toke Point, Wa (tokw1) Weather Station

7:30 - Fri 30th Sep 2016 All times are PDT. -7 hours from GMT.

  • Wind
    3mph, 5mph gusts
  • Sea Temp 58°f
  • Aire Temp 50°f
  • Sea Pressure 1017.5mb
  • 9440910 - Toke Point, Wa
  • 9440910 - Toke Point, Wa

More Historic Weather Station data

Upgrade to MSW Pro to gain access to the past 30 days of data for over 8000 Wavebouys and Weather Stations around the globe.

Join Pro

Comparision Forecast

View Surf forecast
   
vie 09/30 7:30 3 5 mph 1017.5mb 58f 50f
7:24 3 5 mph 1017.5mb 58f 50f
7:18 5 7 mph 1017.5mb 58f 50f
7:12 3 6 mph 1017.5mb 58f 50f
7:06 6 8 mph 1017.5mb 58f 50f
7:00 6 7 mph 1017.5mb 58f 50f
6:54 6 8 mph 1017.4mb 58f 50f
6:48 7 8 mph 1017.4mb 58f 50f
6:42 7 8 mph 1017.4mb 58f 50f
6:36 7 8 mph 1017.5mb 58f 50f
6:30 6 7 mph 1017.5mb 58f 50f
6:24 6
mph
1017.6mb 58f 50f
6:18 5 6 mph 1017.6mb 58f 50f
6:12 3 6 mph 1017.6mb 58f 50f
6:06 3 5 mph 1017.6mb 58f 50f
6:00 1 2 mph 1017.6mb 58f 50f
5:54  -  5 mph 1017.6mb 58f 50f
5:48 2 3 mph 1017.6mb 58f 50f
5:42 3 7 mph 1017.6mb 58f 50f
5:36 7 9 mph 1017.7mb 58f 50f
5:30 9 10 mph 1017.7mb 58f 50f
5:24 9 10 mph 1017.7mb 58f 50f
5:18 8 9 mph 1017.7mb 58f 50f
5:12 8 9 mph 1017.7mb 58f 50f
5:06 8
mph
1017.8mb 58f 50f
5:00 7 8 mph 1017.8mb 58f 50f
4:54 7 8 mph 1017.8mb 58f 50f
4:48 7 8 mph 1017.9mb 58f 50f
4:42 7 8 mph 1017.9mb 58f 51f
4:36 6 7 mph 1017.9mb 58f 50f
4:30 6 7 mph 1017.9mb 58f 51f
4:24 3 7 mph 1018mb 58f 51f
4:18 5 7 mph 1018mb 58f 51f
4:12 7 8 mph 1018mb 58f 51f
4:06 6 7 mph 1018mb 58f 51f
4:00 5 7 mph 1018mb 58f 51f
3:54 7 8 mph 1018mb 58f 51f
3:48 6 7 mph 1018mb 58f 51f
3:42 3 6 mph 1018.1mb 58f 51f
3:36 6
mph
1018.1mb 58f 51f
3:30 6 7 mph 1018.2mb 58f 51f
3:24 5 6 mph 1018.2mb 57f 51f
3:18 3 5 mph 1018.3mb 57f 51f
3:12 2 5 mph 1018.4mb 57f 51f
3:06 3 5 mph 1018.4mb 56f 51f
3:00 2 3 mph 1018.4mb 56f 52f
2:54 1 2 mph 1018.4mb 56f 52f
2:48 2 3 mph 1018.4mb 57f 51f
2:42 3 5 mph 1018.4mb 56f 51f
2:36 3 5 mph 1018.4mb 57f 51f
2:30 2 5 mph 1018.3mb 57f 51f
2:24 2 3 mph 1018.3mb 57f 52f
2:18 2 3 mph 1018.2mb 56f 52f
2:12 1 2 mph 1018.2mb 56f 53f
2:06  -  2 mph 1018.3mb 56f 53f
2:00 1 2 mph 1018.3mb 56f 52f
1:54  -  3 mph 1018.3mb 56f 52f
1:48 2
mph
1018.3mb 55f 52f
1:42 2 5 mph 1018.3mb 56f 52f
1:36 3 5 mph 1018.3mb 56f 52f
1:30 2 3 mph 1018.3mb 56f 52f
1:24  -  1 mph 1018.4mb 56f 51f
1:18  -  2 mph 1018.4mb 56f 51f
1:12 2
mph
1018.4mb 56f 51f
1:06  -  2 mph 1018.4mb 56f 51f
1:00 2
mph
1018.4mb 56f 50f
12:54 2 3 mph 1018.4mb 56f 51f
12:48 2 3 mph 1018.5mb 56f 51f
12:42 2
mph
1018.5mb 56f 51f
12:36 2
mph
1018.5mb 56f 51f
12:30  -  1 mph 1018.5mb 56f 51f
12:24  -  2 mph 1018.5mb 56f 51f
12:18  -  1 mph 1018.6mb 57f 51f
12:12 1 2 mph 1018.7mb 58f 51f
12:06 1 2 mph 1018.7mb 58f 51f
12:00  -  2 mph 1018.6mb 58f 51f
jue 09/29 11:54 1 2 mph 1018.6mb 58f 51f
11:48 1 2 mph 1018.6mb - -
11:42 2
mph
1018.6mb - -
11:36 1 2 mph 1018.6mb - -
11:30 2 3 mph 1018.5mb 59f 52f
11:24 2 3 mph 1018.5mb 60f 52f
11:18 2 3 mph 1018.6mb 60f 52f
11:12 1 2 mph 1018.6mb 60f 52f
11:06 2 3 mph 1018.7mb 60f 51f
11:00 2 3 mph 1018.8mb 60f 51f
10:54 3
mph
1018.8mb 60f 51f
10:48 3
mph
1018.8mb 60f 51f
10:42 3
mph
1018.8mb 60f 52f
10:36 2 3 mph 1018.9mb 60f 53f
10:30 2
mph
1018.9mb 60f 53f
10:24 2
mph
1018.9mb 61f 53f
10:18 1 2 mph 1018.9mb 61f 52f
10:12 2 3 mph 1018.9mb 60f 51f
10:06 2 3 mph 1019mb 60f 51f
10:00 2 3 mph 1018.9mb 61f 52f
9:54 3
mph
1018.8mb 61f 53f
9:48 2
mph
1018.8mb 60f 54f
9:42 1 2 mph 1018.7mb 60f 54f
9:36 1
mph
1018.7mb 60f 54f
9:30 1 2 mph 1018.7mb 61f 54f
9:24 1 2 mph 1018.8mb 61f 55f
9:18 2
mph
1018.8mb 62f 55f
9:12 1 2 mph 1018.8mb 61f 55f
9:06 1 2 mph 1018.8mb 61f 55f
9:00 2
mph
1018.9mb 61f 55f
8:54 1
mph
1018.9mb 61f 55f
8:48 1 2 mph 1019.1mb 61f 55f
8:42 2
mph
1019.1mb 61f 55f
8:36  -  1 mph 1019.1mb 61f 55f
8:30  -  mph 1019.1mb 61f 54f
8:24  -  1 mph 1019mb 61f 54f
8:18  -  1 mph 1019mb 61f 54f
8:12  -  2 mph 1019mb 61f 55f
8:06 1 2 mph 1019.1mb 61f 55f
8:00 1 3 mph 1019.1mb 60f 55f
7:54 2 3 mph 1019.1mb 62f 55f
7:48 2 3 mph 1019mb 61f 55f
7:42 3
mph
1019.1mb 61f 55f
7:36 2 3 mph 1019.1mb 61f 55f
7:30 3
mph
1019mb 60f 55f
7:24 2 6 mph 1019mb 60f 56f
7:18 5 7 mph 1019mb 60f 56f
7:12 5 7 mph 1018.9mb 60f 56f
7:06 5 6 mph 1019mb 60f 56f
7:00 5 6 mph 1018.9mb 61f 56f
6:54 5 6 mph 1019.1mb 60f 56f
6:48 6 8 mph 1019.1mb 60f 56f
6:42 7 9 mph 1019.2mb 60f 57f
6:36 7 8 mph 1019.1mb 60f 57f
6:30 7 9 mph 1019mb 60f 57f
6:24 6 7 mph 1019mb 60f 57f
6:18 7 8 mph 1019.2mb 61f 57f
6:12 8 9 mph 1019.2mb 61f 58f
6:06 7 8 mph 1018.9mb 60f 58f
6:00 7 10 mph 1018.9mb 60f 58f
5:54 9 11 mph 1019mb 60f 58f
5:48 9 15 mph 1019mb 60f 58f
5:42 13 16 mph 1019.2mb 61f 58f
5:36 14 17 mph 1019.1mb 60f 58f
5:30 13 16 mph 1019mb 60f 58f
5:24 11 14 mph 1019.2mb 61f 59f
5:18 10 15 mph 1019.2mb 60f 59f
5:12 14 17 mph 1019mb 60f 59f
5:06 15 17 mph 1019.1mb 60f 59f
5:00 13 15 mph 1019.1mb 60f 59f
4:54 13 18 mph 1019.1mb 61f 60f
4:48 17 21 mph 1019.1mb 60f -
4:42 16 21 mph 1019.2mb 60f -
4:36 13 16 mph 1019.2mb 60f -
4:30 15 17 mph 1019.3mb 60f 59f
4:24 14 18 mph 1019.2mb 60f 59f
4:18 11 15 mph 1019.2mb 60f 59f
4:12 11 17 mph 1019.2mb 60f 59f
4:06 13 18 mph 1019.2mb 60f 59f
4:00 14 21 mph 1019.2mb 60f 59f
3:54 15 21 mph 1019.1mb 59f 59f
3:48 18 23 mph 1019.1mb 60f -
3:42 15 21 mph 1019.2mb 60f -
3:36 15 20 mph 1019.1mb 60f -
3:30 11 16 mph 1019mb 60f 60f
3:24 13 17 mph 1019mb 60f 60f
3:18  -  mph 1019mb 60f -
3:12  -  mph 1019mb 60f -
3:06  -  mph 1019mb 59f -
3:00 14 18 mph 1019mb 59f 61f
2:54 13 20 mph 1019.1mb 59f 61f
2:48 16 18 mph - 59f 60f
2:42 17 21 mph - 57f 61f
2:36 14 18 mph - 58f 60f
2:30 15 17 mph 1019.1mb 57f 61f
2:24 14 17 mph 1019mb 57f 60f
2:18 8 13 mph 1019mb 56f 61f
2:12 13 18 mph 1019mb 56f 61f
2:06 13 18 mph 1019mb 55f 61f
2:00 10 16 mph 1019mb 55f 61f
1:54 10 15 mph 1019.1mb 55f 61f
1:48 14 20 mph 1019.1mb 55f 61f
1:42 15 18 mph 1019.1mb 56f 61f
1:36 17 21 mph 1019mb 55f 60f
1:30 13 16 mph 1019.2mb 55f 61f
1:24 11 15 mph 1019.1mb 56f 61f
1:18 14 16 mph 1019.2mb 56f 61f
1:12 11 14 mph 1019.1mb 55f 61f
1:06 8 15 mph 1019.1mb 56f 61f
1:00 14 15 mph 1019mb 56f 61f
12:54 11 14 mph 1018.9mb 56f 61f
12:48 10 14 mph 1019mb 56f 61f
12:42 13 15 mph 1019mb 57f 61f
12:36 10 13 mph 1019.1mb 57f 61f
12:30 10 13 mph 1019.2mb 58f 61f
12:24 5 7 mph 1019.3mb 58f 60f
12:18 2 6 mph 1019.4mb 58f 61f
12:12 2 6 mph 1019.3mb 58f 58f
12:06 2 5 mph 1019.3mb 58f 59f
12:00  -  5 mph 1019.4mb 59f 59f
11:54 2 5 mph 1019.4mb 59f 58f
11:48 2 6 mph 1019.4mb 59f 58f
11:42 6 7 mph 1019.5mb 59f 56f
11:36 6 7 mph 1019.6mb 59f 56f
11:30 6 7 mph 1019.6mb 59f 55f
11:24 5 6 mph 1019.6mb 59f 55f
11:18 5
mph
1019.6mb 59f 55f
11:12 3 5 mph 1019.5mb 59f 55f
11:06 3 5 mph 1019.5mb 59f 55f
11:00 3 5 mph 1019.5mb 59f 55f
10:54 3 5 mph 1019.5mb 59f 55f
10:48 5 6 mph 1019.5mb 59f 54f
10:42 5
mph
1019.5mb 59f 54f
10:36 5 6 mph 1019.5mb 59f 54f
10:30 5
mph
1019.5mb 59f 54f
10:24 3 5 mph 1019.4mb 59f 54f
10:18 2 3 mph 1019.3mb 59f 54f
10:12 2 5 mph 1019.3mb 59f 54f
10:06 5
mph
1019.3mb 59f 53f
10:00 5 6 mph 1019.3mb 59f 53f
9:54 3 7 mph 1019.3mb 59f 53f
9:48 6
mph
1019.3mb 59f 52f
9:42 6 8 mph 1019.3mb 59f 52f
9:36 6 7 mph 1019.3mb 59f 51f
9:30 6 8 mph 1019.3mb 59f 51f
9:24 7 8 mph 1019.3mb 59f 50f
9:18 7 8 mph 1019.2mb 59f 49f
9:12 6 7 mph 1019.2mb 59f 49f
9:06 7 8 mph 1019.2mb 60f 49f
9:00 7 8 mph 1019.2mb 59f 49f
8:54 7 8 mph 1019.2mb 59f 49f
8:48 6 8 mph 1019.2mb 59f 48f
8:42 7 8 mph 1019.1mb 59f 47f
8:36 8
mph
1019.1mb 59f 47f
8:30 8 9 mph 1019mb 59f 47f
8:24 8 9 mph 1019mb 59f 47f
8:18 8 9 mph 1018.9mb 59f 47f
8:12 8 9 mph 1018.9mb 59f 47f
8:06 8 9 mph 1018.9mb 59f 47f
8:00 8 9 mph 1018.8mb 59f 47f
7:54 7 9 mph 1018.9mb 59f 47f
7:48 8 9 mph 1018.8mb 60f 47f
7:42 8 9 mph 1018.8mb 60f 48f
7:36 8
mph
1018.8mb 60f 48f
7:30 7 8 mph 1018.8mb 59f 48f
7:24 8 9 mph 1018.6mb 60f 48f
7:18 7 8 mph 1018.6mb 60f 48f
7:12 7 8 mph 1018.6mb 60f 49f
7:06 7 8 mph 1018.6mb 60f 49f
7:00 7 9 mph 1018.4mb 59f 49f
6:54 7 8 mph 1018.3mb 60f 49f
6:48 6 8 mph 1018.3mb 60f 49f
6:42 7 8 mph 1018.3mb 59f 49f
6:36 6 7 mph 1018.3mb 59f 49f
6:30 6 7 mph 1018.3mb 59f 50f
6:24 6 8 mph 1018.3mb 59f 50f
6:18 6 7 mph 1018.3mb 59f 50f
6:12 6 7 mph 1018.2mb 59f 50f
6:06 6 7 mph 1018.3mb 59f 50f
6:00 6 7 mph 1018.3mb 59f 50f
5:54 6
mph
1018.2mb 59f 50f
5:48 6 7 mph 1018.2mb 59f 50f
5:42 6 7 mph 1018.2mb 59f 51f
5:36 5 6 mph 1018.2mb 59f 51f
5:30 5 6 mph 1018.2mb 59f 52f
5:24 3 5 mph 1018.2mb 59f 52f
5:18 3 5 mph 1018.2mb 59f 52f
5:12 3 6 mph 1018.2mb 59f 52f
5:06 3 5 mph 1018.1mb 59f 52f
5:00 5 7 mph 1018.1mb 59f 52f
4:54 5 6 mph 1018.2mb 59f 52f
4:48 5 7 mph 1018.1mb 59f 52f
4:42 5 7 mph 1018.1mb 59f 52f
4:36 5 6 mph 1018.1mb 59f 52f
4:30 5 7 mph 1018.1mb 59f 53f
4:24 3 7 mph 1018.2mb 59f 53f
4:18 5 7 mph 1018.2mb 59f 53f
4:12 3 6 mph 1018.2mb 59f 53f
4:06 3 6 mph 1018.2mb 59f 53f
4:00 3 6 mph 1018.2mb 59f 53f
3:54 3 6 mph 1018.2mb 59f 53f
3:48 5 6 mph 1018.1mb 59f 53f
3:42 5 7 mph 1018.1mb 59f 53f
3:36 7 8 mph 1018.1mb 59f 53f
3:30 5 8 mph 1018.1mb 59f 53f
3:24 5 6 mph 1018.1mb 59f 53f
3:18 3 6 mph 1018mb 59f 53f
3:12 3 5 mph 1018mb 59f 53f
3:06 2 5 mph 1017.9mb 59f 53f
3:00 1 5 mph 1017.9mb 59f 53f
2:54 3 6 mph 1017.9mb 58f 53f
2:48 2 5 mph 1017.9mb 59f 53f
2:42 3 6 mph 1017.9mb 59f 53f
2:36 2 3 mph 1017.9mb 58f 53f
2:30 2 5 mph 1017.9mb 58f 53f
2:24 3 5 mph 1017.9mb 58f 53f
2:18 3 5 mph 1017.9mb 59f 53f
2:12 2 5 mph 1017.9mb 59f 54f
2:06 3 6 mph 1017.9mb 59f 54f
2:00 3 6 mph 1017.9mb 59f 54f
1:54 3 5 mph 1017.9mb 59f 53f
1:48 5 6 mph 1017.9mb 58f 53f
1:42 3 6 mph 1017.9mb 58f 53f
1:36 6
mph
1018mb 58f 53f
1:30 3 5 mph 1018mb 58f 54f
1:24 3 6 mph 1018mb 58f 53f
1:18 5 6 mph 1018mb 58f 54f
1:12 5 6 mph 1017.9mb 58f 54f
1:06 5 6 mph 1018mb 58f 54f
1:00 3 6 mph 1018mb 58f 54f
12:54 5 6 mph 1017.9mb 58f 54f
12:48 5 6 mph 1017.9mb 57f 54f
12:42 5 6 mph 1017.9mb 58f 54f
12:36 6 7 mph 1017.9mb 58f 54f
12:30 5 7 mph 1017.9mb 58f 54f
12:24 6 7 mph 1017.9mb 58f 54f
12:18 5 6 mph 1017.9mb 58f 54f
12:12 5 7 mph 1017.9mb 58f 55f
12:06 6 7 mph 1017.9mb 58f 55f
12:00 5 8 mph 1017.9mb 58f 55f
mié 09/28 11:54 7 8 mph 1017.9mb 58f 55f
11:48 7 9 mph 1017.9mb - -
11:42 6 11 mph 1017.9mb - -
11:36 8 11 mph 1018mb - -
11:30 6 9 mph 1018mb 60f 55f
11:24 7 9 mph 1018mb 60f 55f
11:18 6 9 mph 1018mb 60f 55f
11:12 5 6 mph 1018.1mb 60f 55f
11:06 3 6 mph 1018.1mb 61f 55f
11:00 6 9 mph 1018.1mb 61f 55f
10:54 6 8 mph 1018.1mb 61f 55f
10:48 6 10 mph 1018.1mb 62f -
10:42 8 10 mph 1018mb 62f -
10:36 7 9 mph 1018mb 62f -
10:30 6 13 mph 1018mb 62f 55f
10:24 7 9 mph 1018mb 62f 55f
10:18 8 11 mph 1017.9mb 62f 55f
10:12 7 9 mph 1017.9mb 62f 55f
10:06 6 8 mph 1018mb 62f 55f
10:00 6 8 mph 1017.9mb 62f 55f
9:54 5 8 mph 1018mb 62f 55f
9:48 6 8 mph 1017.9mb 62f 55f
9:42 7 10 mph 1017.9mb 63f 55f
9:36 8 11 mph 1017.9mb 62f 55f
9:30 9 11 mph 1017.9mb 63f 55f
9:24 9 15 mph 1017.9mb 63f 55f
9:18 11 14 mph 1017.8mb 63f 55f
9:12 11 16 mph 1017.8mb 63f 55f
9:06 13 18 mph 1017.8mb 62f 56f
9:00 13 16 mph 1017.8mb 63f 56f
8:54 14 17 mph 1017.7mb 63f 56f
8:48 15 18 mph 1017.8mb 63f 56f
8:42 15 20 mph 1017.8mb 63f 56f
8:36 16 21 mph 1017.8mb 63f 56f
8:30 14 17 mph 1017.8mb 63f 56f
8:24 10 13 mph 1017.9mb 63f 55f
8:18 7 9 mph 1017.8mb 63f 55f
8:12 7 10 mph 1017.8mb 63f 55f
8:06 8 10 mph 1017.8mb 63f 55f
8:00 6 8 mph 1017.8mb 63f 55f
7:54 5 7 mph 1017.8mb 63f 55f
7:48 5 6 mph 1017.8mb 62f 56f
7:42 3 8 mph 1017.8mb 62f 56f
7:36 7 8 mph 1017.8mb 62f 56f
7:30 5 8 mph 1017.8mb 62f 56f
7:24 5 9 mph 1017.8mb 62f 56f
7:18 5 8 mph 1017.8mb 63f 56f
7:12 6 11 mph 1017.8mb 63f 56f
7:06 8 11 mph 1017.7mb 63f 56f
7:00 6 9 mph 1017.7mb 63f 57f
6:54 6 8 mph 1017.8mb 63f 57f
6:48 7 10 mph 1017.7mb 62f 57f
6:42 6 9 mph 1017.8mb 62f 57f
6:36 7 10 mph 1017.8mb 63f 58f
6:30 9 14 mph 1017.8mb 63f 58f
6:24 11 14 mph 1017.7mb 63f 58f
6:18 13 15 mph 1017.7mb 62f 58f
6:12 14 17 mph 1017.8mb 62f 58f
6:06 9 14 mph 1017.8mb 62f 59f
6:00 14 20 mph 1017.8mb 63f 59f
5:54 16 18 mph 1017.7mb 62f 60f
5:48 15 18 mph 1017.7mb 62f 60f
5:42 14 16 mph 1017.7mb 63f 60f
5:36 10 14 mph 1017.8mb 63f 60f
5:30 11 15 mph - 62f 60f
5:24 11 16 mph - 62f 61f
5:18 11 15 mph - - -
5:12 14 16 mph 1017.8mb 63f 61f
5:06 14 18 mph 1017.8mb 63f 61f
5:00 15 18 mph 1017.8mb 62f 61f
4:54 14 16 mph 1017.8mb 62f 61f
4:48 13 15 mph 1017.8mb 63f -
4:42 14 18 mph 1017.8mb 63f -
4:36 16 18 mph 1017.8mb 63f -
4:30 15 17 mph 1017.8mb 63f 61f
4:24 15 17 mph 1017.8mb 63f 61f
4:18 14 17 mph 1017.9mb 63f 62f
4:12 15 18 mph 1017.8mb 63f 62f
4:06 15 16 mph 1017.9mb 63f 62f
4:00 15 18 mph 1017.9mb 63f 62f
3:54 14 18 mph 1017.9mb 63f 62f
3:48 15 18 mph - - -
3:42 15 17 mph 1018mb 62f -
3:36 13 16 mph 1018mb 62f -
3:30 15 16 mph 1018mb 62f 62f
3:24 14 17 mph 1018mb 62f 63f
3:18 16 18 mph 1018mb 62f 63f
3:12 13 15 mph 1018.1mb 62f 63f
3:06 14 15 mph 1018.1mb 62f 63f
3:00 8 13 mph 1018.1mb 61f 64f
2:54 10 13 mph 1018.1mb 62f 65f
2:48 11 14 mph 1018.1mb 61f 64f
2:42 11
mph
1018.2mb 60f 65f
2:36 9 14 mph 1018.2mb 60f 65f
2:30 10 13 mph 1018.2mb 61f 65f
2:24 9 13 mph 1018.2mb 60f 65f
2:18 10 13 mph 1018.2mb 59f 65f
2:12 9 14 mph 1018.2mb 59f 65f
2:06 10 13 mph 1018.3mb 60f 65f
2:00 11 14 mph 1018.3mb 60f 64f
1:54 7 10 mph 1018.4mb 60f 64f
1:48 6 10 mph 1018.4mb 60f 64f
1:42 7 11 mph 1018.5mb 60f 63f
1:36 9 13 mph 1018.5mb 60f 62f
1:30 10 14 mph 1018.7mb 59f 61f
1:24 10 15 mph 1018.8mb 59f 61f
1:18 11 15 mph 1018.8mb 59f 60f
1:12 11 16 mph 1018.9mb 59f 60f
1:06 13 16 mph 1018.9mb 59f 60f
1:00 10 15 mph 1019mb 59f 60f
12:54 9 11 mph 1019mb 59f 60f
12:48 9 11 mph 1019mb 59f 60f
12:42 7 9 mph 1019mb 59f 60f
12:36 6 9 mph 1019mb 59f 60f
12:30 7 9 mph 1019.1mb 59f 60f
12:24 7 8 mph 1019.1mb 59f 60f
12:18 7 8 mph 1019mb 59f 60f
12:12 6 7 mph 1019.1mb 59f 60f
12:06 3 6 mph 1019.1mb 60f 61f
12:00 1 2 mph 1019.1mb 60f 62f
11:54 1
mph
1019.2mb 60f 61f
11:48  -  1 mph 1019.3mb 60f 61f
11:42  -  1 mph 1019.3mb 60f 61f
11:36  -  1 mph 1019.3mb 60f 60f
11:30  -  1 mph 1019.4mb 60f 60f
11:24 2 3 mph 1019.4mb 61f 59f
11:18 3 5 mph 1019.4mb 61f 59f
11:12 3 5 mph 1019.4mb 61f 58f
11:06 5
mph
1019.5mb 61f 58f
11:00 5 6 mph 1019.5mb 61f 58f
10:54 5 6 mph 1019.5mb 61f 58f
10:48 6
mph
1019.5mb 61f 57f
10:42 5 7 mph 1019.5mb 61f 57f
10:36 6 7 mph 1019.5mb 61f 57f
10:30 6 7 mph 1019.5mb 61f 56f
10:24 6 7 mph 1019.6mb 61f 56f
10:18 6 7 mph 1019.6mb 61f 56f
10:12 6 8 mph 1019.6mb 61f 56f
10:06 6 7 mph 1019.6mb 61f 56f
10:00 6 7 mph 1019.6mb 61f 55f
9:54 6 7 mph 1019.6mb 61f 55f
9:48 6 7 mph 1019.6mb 61f 55f
9:42 6 7 mph 1019.6mb 61f 55f
9:36 5 6 mph 1019.6mb 61f 54f
9:30 5 6 mph 1019.6mb 61f 54f
9:24 3 6 mph 1019.6mb 61f 54f
9:18 5 6 mph 1019.6mb 61f 54f
9:12 2 5 mph 1019.7mb 61f 54f
9:06 2 5 mph 1019.7mb 61f 54f
9:00 3
mph
1019.7mb 61f 53f
8:54 2 5 mph 1019.7mb 61f 53f
8:48 3 5 mph 1019.6mb 61f 53f
8:42 2 3 mph 1019.7mb 61f 53f
8:36 3 7 mph 1019.7mb 61f 52f
8:30 6 7 mph 1019.7mb 61f 52f
8:24 7
mph
1019.6mb 61f 52f
8:18 7
mph
1019.7mb 61f 52f
8:12 6 7 mph 1019.7mb 61f 52f
8:06 3 6 mph 1019.7mb 61f 52f
8:00 2 3 mph 1019.7mb 61f 51f
7:54 1 3 mph 1019.7mb 61f 51f
7:48 1 2 mph 1019.6mb 61f 49f
7:42 2 3 mph 1019.6mb 61f 48f
7:36 3
mph
1019.6mb 61f 48f
7:30 2 5 mph 1019.5mb 61f 49f
7:24 3 5 mph 1019.4mb 61f 50f
7:18 5 6 mph 1019.5mb 61f 51f
7:12 5 6 mph 1019.4mb 62f 54f
7:06 5 7 mph 1019.4mb 62f 53f
7:00 6 7 mph 1019.4mb 62f 53f
6:54 6 7 mph 1019.4mb 61f 53f
6:48 6 7 mph 1019.4mb 62f 53f
6:42 7 8 mph 1019.4mb 61f 53f
6:36 3 6 mph 1019.5mb 61f 52f
6:30 5 6 mph 1019.5mb 62f 51f
6:24 6
mph
1019.5mb 62f 51f
6:18 6
mph
1019.5mb 61f 50f
6:12 6 7 mph 1019.5mb 61f 51f
6:06 7 8 mph 1019.5mb 61f 51f
6:00 6 7 mph 1019.4mb 61f 52f
5:54 5 6 mph 1019.4mb 61f 52f
5:48 5
mph
1019.4mb 61f 52f
5:42 3 5 mph 1019.4mb 61f 53f
5:36 5
mph
1019.3mb 61f 53f
5:30 3 5 mph 1019.2mb 61f 53f
5:24 3 5 mph 1019.2mb 61f 53f
5:18 3 5 mph 1019.2mb 61f 53f
5:12 5
mph
1019.1mb 61f 53f
5:06 5 6 mph 1019.2mb 61f 53f
5:00 5 6 mph 1019.2mb 61f 53f
4:54 5 6 mph 1019.2mb 61f 53f
4:48 6 8 mph 1019.2mb 61f 53f
4:42 7 9 mph 1019.2mb 61f 53f
4:36 8 9 mph 1019.2mb 61f 53f
4:30 7 8 mph 1019.3mb 61f 53f
4:24 8 9 mph 1019.3mb 61f 53f
4:18 8 9 mph 1019.3mb 61f 53f
4:12 8 9 mph 1019.3mb 61f 53f
4:06 8
mph
1019.3mb 61f 53f
4:00 7 8 mph 1019.3mb 61f 53f
3:54 8 9 mph 1019.3mb 61f 53f
3:48 9 10 mph 1019.4mb 61f 53f
3:42 8
mph
1019.3mb 61f 54f
3:36 6 8 mph 1019.3mb 61f 54f
3:30 7 8 mph 1019.3mb 61f 54f
3:24 5 6 mph 1019.4mb 61f 54f
3:18 3 6 mph 1019.4mb 61f 54f
3:12 5 7 mph 1019.4mb 61f 54f
3:06 7
mph
1019.4mb 61f 54f
3:00 6
mph
1019.5mb 61f 54f
2:54 6
mph
1019.6mb 61f 54f
2:48 6
mph
1019.5mb 61f 55f
2:42 6 8 mph 1019.5mb 61f 55f
2:36 7 8 mph 1019.5mb 61f 54f
2:30 7 8 mph 1019.6mb 61f 54f
2:24 6 7 mph 1019.6mb 61f 54f
2:18 6 7 mph 1019.7mb 61f 55f
2:12 6 7 mph 1019.6mb 61f 54f
2:06 6 7 mph 1019.7mb 61f 54f
2:00 6 7 mph 1019.7mb 61f 54f
1:54 6
mph
1019.8mb 61f 55f
1:48 3
mph
1019.7mb 61f 54f
1:42 2 3 mph 1019.8mb 60f 54f
1:36 3 5 mph 1019.9mb 60f 54f
1:30 5 6 mph 1019.8mb 61f 55f
1:24 3 6 mph 1019.8mb 60f 55f
1:18 5
mph
1019.9mb 61f 55f
1:12 6
mph
1019.8mb 61f 55f
1:06 5 6 mph 1019.7mb 61f 55f
1:00 6
mph
1019.8mb 60f 55f
12:54 6
mph
1019.8mb 60f 55f
12:48 5 6 mph 1019.8mb 60f 55f
12:42 5
mph
1019.8mb 60f 56f
12:36 5 6 mph 1019.8mb 60f 56f
12:30 5 6 mph 1019.8mb 60f 56f
12:24 5
mph
1019.7mb 60f 56f
12:18 5
mph
1019.7mb 60f 56f
12:12 3 5 mph 1019.7mb 60f 56f
12:06 3 5 mph 1019.8mb 59f 56f
12:00 3 5 mph 1019.8mb 60f 56f
mar 09/27 11:54 2
mph
1019.9mb 60f 57f
11:48 2 3 mph 1020mb 60f 57f
11:42 3 5 mph 1019.9mb 60f 57f
11:36 3
mph
1019.9mb 60f 57f
11:30 3 5 mph 1019.9mb 60f 57f
11:24 5 6 mph 1020mb 60f 57f
11:18 5 7 mph 1020mb 60f 57f
11:12 5 6 mph 1020mb 60f 57f
11:06 5 6 mph 1020mb 61f 57f
11:00 5 6 mph 1020mb 61f 57f
10:54 3 5 mph 1020mb 62f 57f
10:48 3 6 mph 1020.1mb 62f -
10:42 2 5 mph 1020.1mb 62f -
10:36 2 3 mph 1020.1mb 62f -
10:30 3 8 mph 1020.1mb 62f 56f
10:24 8 11 mph 1020mb 62f 56f
10:18 9 10 mph 1020mb 63f 56f
10:12 8 9 mph 1020.1mb 63f 56f
10:06 7 8 mph 1020.1mb 64f 56f
10:00 6 9 mph 1020.2mb 64f 56f
9:54 8 9 mph 1020.2mb 64f 56f
9:48 7 9 mph 1020.2mb 64f 56f
9:42 8 9 mph 1020.2mb 64f 56f
9:36 8 9 mph 1020.3mb 64f 56f
9:30 7 8 mph 1020.3mb 64f 57f
9:24 3 7 mph 1020.4mb 64f 56f
9:18 6 8 mph 1020.4mb 64f 57f
9:12 6 8 mph 1020.4mb 64f 57f
9:06 7 8 mph 1020.3mb 64f 57f
9:00 6 10 mph 1020.2mb 64f 57f
8:54 10 11 mph 1020.1mb 64f 56f
8:48 9 13 mph 1020mb 64f 57f
8:42 11 14 mph 1019.9mb 64f 57f
8:36 13 16 mph 1019.9mb 64f 57f
8:30 14 18 mph 1019.9mb 64f 57f
8:24 15 18 mph 1019.8mb 64f 57f
8:18 16 20 mph 1019.8mb 64f 57f
8:12 18 21 mph 1019.8mb 64f 57f
8:06 18 21 mph 1019.8mb 64f 57f
8:00 18 22 mph 1019.7mb 64f 57f
7:54 20 22 mph 1019.7mb 64f 57f
7:48 17 21 mph 1019.8mb 64f 58f
7:42 18 22 mph 1019.8mb 64f 58f
7:36 18 22 mph 1019.8mb 64f 57f
7:30 18 22 mph 1019.7mb 65f 58f
7:24 17 20 mph 1019.8mb 64f 58f
7:18 17 21 mph 1019.8mb 65f 57f
7:12 18 22 mph 1019.8mb 65f 57f
7:06 18 22 mph 1019.8mb 65f 57f
7:00 18 22 mph 1019.8mb 64f 57f
6:54 17 23 mph 1019.8mb 65f 57f
6:48 18 22 mph 1019.9mb 64f 57f
6:42 16 20 mph 1020mb 65f 58f
6:36 17 20 mph 1020mb 65f 58f
6:30 16 20 mph 1020mb 65f 59f
6:24 16 20 mph 1020mb 66f 59f
6:18 16 21 mph - 65f 59f
6:12 17 20 mph - 66f 59f
6:06 16 18 mph - 65f 60f
6:00 17 21 mph 1020.1mb 65f 60f
5:54 15 20 mph 1020.1mb 65f 61f
5:48 17 21 mph 1020.1mb 65f 61f
5:42 14 17 mph 1020.1mb 65f 62f
5:36 17 21 mph 1020.1mb 65f 61f
5:30 16 18 mph 1020.1mb 65f 62f
5:24 14 17 mph 1020.2mb 65f 62f
5:18 13 15 mph 1020.3mb 65f 62f
5:12 13 16 mph 1020.3mb 65f 62f
5:06 14 16 mph 1020.4mb 65f 62f
5:00 13 18 mph 1020.5mb 65f 63f
4:54 13 16 mph 1020.5mb 65f 63f
4:48 14 16 mph 1020.6mb 65f -
4:42 15 16 mph 1020.7mb 65f -
4:36 14 16 mph 1020.8mb 65f -
4:30 13 15 mph 1020.8mb 65f 63f
4:24 13 15 mph 1020.9mb 65f 63f
4:18 14 17 mph - - -
4:12 15 16 mph 1020.9mb 65f 63f
4:06 14 15 mph 1020.9mb 65f 63f
4:00 14 16 mph 1020.9mb 65f 63f
3:54 14 15 mph 1020.9mb 65f 64f
3:48 14 15 mph 1020.9mb 65f 64f
3:42 13 15 mph 1020.9mb 65f 64f
3:36 11 14 mph 1021mb 65f 64f
3:30 13 14 mph 1020.9mb 65f 64f
3:24 10 13 mph 1021mb 65f 64f
3:18 11 14 mph 1021mb 65f 64f
3:12 8 11 mph 1021mb 65f 65f
3:06 10 13 mph 1021.1mb 65f 65f
3:00 9 13 mph 1021.2mb 65f 65f
2:54 9 14 mph 1021.3mb 64f 64f
2:48 8 10 mph - 64f 65f
2:42 9 11 mph - 63f 65f
2:36 8 13 mph - 63f 65f
2:30 8 10 mph 1021.5mb 63f 65f
2:24 7 9 mph 1021.6mb 63f 65f
2:18 6 9 mph 1021.6mb 63f 65f
2:12 8 9 mph 1021.7mb 63f 65f
2:06 7 9 mph 1021.8mb 63f 65f
2:00 5 7 mph 1021.8mb 63f 65f
1:54 5 7 mph 1021.9mb 63f 65f
1:48 6 8 mph 1021.9mb 63f 64f
1:42 5 7 mph 1022mb 63f 64f
1:36 1 2 mph 1022.1mb 62f 65f
1:30 2 3 mph 1022.1mb 62f 65f
1:24 2 6 mph 1022.1mb 62f 64f
1:18 3 6 mph 1022.1mb 62f 64f
1:12 3 6 mph 1022.2mb 62f 63f
1:06 5 6 mph 1022.2mb 62f 63f
1:00 6 7 mph 1022.2mb 62f 63f
12:54 6 7 mph 1022.2mb 62f 62f
12:48 7 8 mph 1022.3mb 62f 61f
12:42 8 10 mph 1022.3mb 62f 61f
12:36 9 10 mph 1022.3mb 62f 61f
12:30 8 10 mph 1022.3mb 62f 61f
12:24 8 10 mph 1022.3mb 61f 60f
12:18 9 13 mph 1022.4mb - -
12:12 11 13 mph 1022.4mb 62f 60f
12:06 10 11 mph 1022.5mb 62f 60f
12:00 9 10 mph 1022.5mb 62f 60f
11:54 8 14 mph 1022.5mb 62f 61f
11:48 9 13 mph 1022.5mb 62f 60f
11:42 8 11 mph 1022.6mb 62f 60f
11:36 9 11 mph 1022.6mb 62f 60f
11:30 10 13 mph 1022.6mb 62f 60f
11:24 10 15 mph 1022.7mb 62f 60f
11:18 9 14 mph 1022.7mb 62f 60f
11:12 9 14 mph 1022.6mb 62f 60f
11:06 10 13 mph 1022.7mb 63f 60f
11:00 9 13 mph 1022.7mb 63f 60f
10:54 10 11 mph 1022.7mb 63f 60f
10:48 10 14 mph 1022.8mb 63f 60f
10:42 10 15 mph 1022.7mb 63f 59f
10:36 10 15 mph 1022.7mb 63f 59f
10:30 11 15 mph 1022.7mb 63f 59f
10:24 9 13 mph 1022.8mb 63f 60f
10:18 10 14 mph 1022.8mb 63f 59f
10:12 14 16 mph 1022.8mb 63f 59f
10:06 14 15 mph 1022.7mb 63f 59f
10:00 13 14 mph 1022.7mb 63f 59f
9:54 14 17 mph 1022.7mb 63f 58f
9:48 9 13 mph 1022.7mb 63f 59f
9:42 6 9 mph 1022.7mb 63f 59f
9:36 5 8 mph 1022.6mb 63f 59f
9:30 5 10 mph 1022.6mb 63f 59f
9:24 8 13 mph 1022.7mb 63f 58f
9:18 10 13 mph 1022.7mb 63f 58f
9:12 7 9 mph 1022.7mb 63f 58f
9:06 8 10 mph 1022.6mb 63f 58f
9:00 7 9 mph 1022.6mb 63f 58f
8:54 8 11 mph 1022.5mb 63f 58f
8:48 8 11 mph 1022.5mb 63f 57f
8:42 6 10 mph 1022.5mb 63f 58f
8:36 8 10 mph 1022.4mb 63f 57f
8:30 9 13 mph 1022.4mb 63f 57f
8:24 7 14 mph 1022.4mb 63f 57f
8:18 9 11 mph 1022.3mb 63f 57f
8:12 10 13 mph 1022.2mb 63f 56f
8:06 7 10 mph 1022.2mb 63f 57f
8:00 8 13 mph 1022.3mb 63f 57f
7:54 8 11 mph 1022.2mb 63f 56f
7:48 8 10 mph 1022.2mb 63f 56f
7:42 9 11 mph 1022.2mb 63f 56f
7:36 9 13 mph 1022.1mb 63f 56f
7:30 9 11 mph 1022.1mb 63f 56f
7:24 9 17 mph 1022mb 63f 56f
7:18 9 14 mph 1021.9mb 63f 56f
7:12 9 14 mph 1021.9mb 63f 56f
7:06 10 14 mph 1021.9mb 63f 56f
7:00 11 14 mph 1021.8mb 63f 56f
6:54 9 10 mph 1021.8mb 64f 56f
6:48 9 14 mph 1021.8mb 63f 57f
6:42 10 16 mph 1021.7mb 63f 57f
6:36 10 15 mph 1021.7mb 63f 57f
6:30 11 14 mph 1021.7mb 64f 57f
6:24 9 14 mph 1021.7mb 63f 57f
6:18 13 16 mph 1021.7mb 64f 57f
6:12 10 20 mph 1021.7mb 64f 58f
6:06 13 15 mph 1021.6mb 64f 57f
6:00 13 17 mph 1021.5mb 64f 58f
5:54 13 16 mph 1021.6mb 64f 58f
5:48 11 15 mph 1021.5mb 64f 58f
5:42 11 15 mph 1021.5mb 63f 58f
5:36 9 14 mph 1021.4mb 63f 58f
5:30 11 17 mph 1021.4mb 63f 58f
5:24 10 15 mph 1021.4mb 63f 58f
5:18 10 16 mph 1021.4mb 63f 58f
5:12 10 15 mph 1021.5mb 63f 58f
5:06 13 17 mph 1021.4mb 63f 58f
5:00 9 11 mph 1021.4mb 63f 58f
4:54 10 16 mph 1021.4mb 63f 58f
4:48 10 13 mph 1021.4mb 63f 58f
4:42 8 11 mph 1021.3mb 63f 59f
4:36 8 13 mph 1021.3mb 63f 58f
4:30 11 14 mph 1021.3mb 63f 58f
4:24 10 13 mph 1021.3mb 63f 59f
4:18 10 13 mph 1021.3mb 63f 59f
4:12 10 11 mph 1021.3mb 63f 59f
4:06 9 14 mph 1021.3mb 63f 59f
4:00 13 15 mph 1021.2mb 63f 60f
3:54 11 16 mph 1021.2mb 63f 60f
3:48 10 14 mph 1021.2mb 63f 60f
3:42 11 14 mph 1021.1mb 63f 60f
3:36 10 14 mph 1021.1mb 63f 60f
3:30 13 18 mph 1021mb 63f 61f
3:24 8 10 mph 1021mb 63f 61f
3:18 7 8 mph 1021mb 63f 61f
3:12 8 9 mph 1021mb 63f 61f
3:06 7 9 mph 1021mb 63f 61f
3:00 6 8 mph 1020.9mb 63f 61f
2:54 6 7 mph 1020.9mb 63f 61f
2:48 6 8 mph 1020.9mb 63f 61f
2:42 6 10 mph 1020.8mb 63f 61f
2:36 7 8 mph 1020.8mb 63f 61f
2:30 7 8 mph 1020.7mb 63f 60f
2:24 6 7 mph 1020.6mb 63f 60f
2:18 7 8 mph 1020.7mb 63f 60f
2:12 6 7 mph 1020.7mb 63f 60f
2:06 6 7 mph 1020.7mb 63f 60f
2:00 6 8 mph 1020.7mb 63f 60f
1:54 7 8 mph 1020.6mb 63f 60f
1:48 7 9 mph 1020.6mb 63f 60f
1:42 9 11 mph 1020.5mb 63f 61f
1:36 8 9 mph 1020.6mb 63f 61f
1:30 7 9 mph 1020.6mb 63f 61f
1:24 6 7 mph 1020.6mb 63f 61f
1:18 5 6 mph 1020.5mb 63f 61f
1:12 5 8 mph 1020.6mb 63f 61f
1:06 6 9 mph 1020.5mb 63f 61f
1:00 6 10 mph 1020.5mb 63f 61f
12:54 7 10 mph 1020.5mb 63f 61f
12:48 9 11 mph 1020.4mb 63f 61f
12:42 7 9 mph 1020.4mb 63f 61f
12:36 8 11 mph 1020.4mb 63f 61f
12:30 9 13 mph 1020.4mb 63f 61f
12:24 6 8 mph 1020.4mb 63f 61f
12:18 7 9 mph 1020.4mb 63f 61f
12:12 9 11 mph 1020.3mb 63f 61f
12:06 8 10 mph 1020.3mb 63f 61f
12:00 8 9 mph 1020.2mb 63f 61f
lun 09/26 11:54 7 11 mph 1020.2mb 63f 61f
11:48 8 10 mph 1020.2mb 63f -
11:42 7 9 mph 1020.1mb 63f -
11:36 8 10 mph 1020.2mb 63f -
11:30 7 9 mph 1020.2mb 63f 61f
11:24 7 9 mph 1020.2mb 63f 61f
11:18 8 10 mph 1020.1mb 63f 61f
11:12 7 9 mph 1020.1mb 63f 61f
11:06 7 8 mph 1020.1mb 63f 61f
11:00 8 9 mph 1020.1mb 63f 61f
10:54 7 8 mph 1020.1mb 63f 61f
10:48 7 8 mph 1020mb 63f -
10:42 5 6 mph 1020mb 63f -
10:36 5 6 mph 1019.9mb 63f -
10:30 5 6 mph 1019.9mb 63f 62f
10:24 3 5 mph 1019.9mb 63f 62f
10:18 3 7 mph 1019.9mb 63f 62f
10:12 5 7 mph 1019.9mb 63f 62f
10:06 6 7 mph 1019.9mb 63f 62f
10:00 6 8 mph 1019.8mb 63f 62f
9:54 6 8 mph 1019.8mb 63f 62f
9:48 7 8 mph 1019.7mb 63f 62f
9:42 6 9 mph 1019.7mb 63f 62f
9:36 8 10 mph 1019.7mb 63f 62f
9:30 7 9 mph 1019.7mb 63f 62f
9:24 9 10 mph 1019.6mb 63f 62f
9:18 7 9 mph 1019.6mb 63f 62f
9:12 7 9 mph 1019.5mb 63f 62f
9:06 7 9 mph 1019.4mb 63f 62f
9:00 8 13 mph 1019.4mb 63f 62f
8:54 10 15 mph 1019.4mb 63f 62f
8:48 8 10 mph 1019.3mb 63f 62f
8:42 8 10 mph 1019.3mb 63f 62f
8:36 6 7 mph 1019.3mb 63f 62f
8:30 5 8 mph 1019.2mb 63f 62f
8:24 6 8 mph 1019.2mb 63f 62f
8:18 7 9 mph 1019.2mb 63f 61f
8:12 8 13 mph 1019.2mb 63f 61f
8:06 7 9 mph 1019.1mb 63f 61f
8:00 7 9 mph 1019.1mb 63f 61f
7:54 6 8 mph 1019.1mb 63f 61f
7:48 8 10 mph 1019mb 63f 61f
7:42 8 10 mph 1018.9mb 64f 61f
7:36 9 15 mph 1018.9mb 64f 61f
7:30 10 11 mph 1018.9mb 64f 61f
7:24 10 13 mph 1018.8mb 64f 61f
7:18 10 14 mph 1018.7mb 65f 61f
7:12 13 15 mph 1018.6mb 64f 62f
7:06 8 11 mph 1018.5mb 64f 62f
7:00 8 15 mph 1018.5mb 64f 62f
6:54 10 11 mph 1018.4mb 64f 63f
6:48 7 10 mph 1018.3mb 65f 63f
6:42 7 14 mph 1018.3mb 65f 64f
6:36 8 13 mph 1018.3mb 65f 64f
6:30 7 13 mph 1018.3mb 65f 64f
6:24 7 13 mph 1018.2mb 65f 64f
6:18  -  mph 1018.1mb 65f 64f
6:12  -  mph 1018.1mb 64f 64f
6:06  -  mph 1018.2mb 64f 64f
6:00 11 14 mph 1018.1mb 64f 64f
5:54 9 14 mph 1018.1mb 64f 64f
5:48 13 16 mph 1018.1mb 65f 64f
5:42 11 16 mph 1018.2mb 65f 64f
5:36 13 17 mph 1018.3mb 65f 64f
5:30 15 18 mph 1018.2mb 65f 64f
5:24 9 17 mph 1018.2mb 65f 65f
5:18  -  mph 1018.2mb 65f 65f
5:12  -  mph 1018.2mb 65f 65f
5:06  -  mph 1018.2mb 65f 65f
5:00 11 17 mph 1018.3mb 65f 65f
4:54 9 16 mph 1018.3mb 65f 65f
4:48 10 16 mph 1018.3mb 65f 65f
4:42 15 22 mph 1018.4mb 65f 65f
4:36 17 22 mph 1018.3mb 65f 65f
4:30 17 24 mph 1018.3mb 65f 65f
4:24 16 22 mph 1018.2mb 65f 66f
4:18 16 21 mph 1018.1mb 65f 66f
4:12 16 22 mph 1018.1mb 65f 66f
4:06 15 22 mph 1018.2mb 65f 66f
4:00 16 22 mph 1018.2mb 65f 66f
3:54 21 25 mph 1018.2mb 65f 66f
3:48 20 25 mph 1018.2mb 65f -
3:42 18 23 mph 1018.2mb 65f -
3:36 18 23 mph 1018.2mb 65f -
3:30 20 24 mph - 65f 68f
3:24 17 20 mph - 65f 69f